Flight Track Log - Related Links

Times and Time Zones

All times are in EST time to prevent confusion due to time zone crossing. See the TAM3918 flight status page for this flight to view local times or setup timezone preferences in your user account.

Time Position Orientation Groundspeed Altitude Reporting Facility
EST Latitude Longitude Course Direction KTS MPH feet Rate Location/Type
Sat 07:54:00 AM -23.3297 -45.1565 78° East  Level Estimated
Sat 07:55:00 AM -23.3094 -45.0568 78° East  Level Estimated
Sat 07:56:00 AM -23.2890 -44.9571 77° East  Level Estimated
Sat 07:57:00 AM -23.2686 -44.8575 77° East  Level Estimated
Sat 07:58:00 AM -23.2481 -44.7579 77° East  Level Estimated
Sat 07:59:00 AM -23.2275 -44.6583 77° East  Level Estimated
Sat 08:00:00 AM -23.2069 -44.5588 77° East  Level Estimated
Sat 08:01:00 AM -23.1862 -44.4593 77° East  Level Estimated
Sat 08:02:00 AM -23.1655 -44.3598 77° East  Level Estimated
Sat 08:03:00 AM -23.1446 -44.2604 77° East  Level Estimated
Sat 08:04:00 AM -23.1238 -44.1610 77° East  Level Estimated
Sat 08:05:00 AM -23.1028 -44.0616 77° East  Level Estimated
Sat 08:06:00 AM -23.0819 -43.9623 77° East  Level Estimated
Sat 08:07:00 AM -23.0608 -43.8629 77° East  Level Estimated
Sat 08:08:00 AM -23.0397 -43.7636 77° East  Level Estimated
Sat 08:09:00 AM -23.0185 -43.6644 77° East  Level Estimated
Sat 08:10:00 AM -22.9972 -43.5652 77° East  Level Estimated
Sat 08:11:00 AM -22.9759 -43.4660 77° East  Level Estimated
Sat 08:12:00 AM -22.9546 -43.3668 77° East  Level Estimated
Sat 08:13:00 AM -22.9331 -43.2677 77° East  Level Estimated
Sat 08:14:00 AM -22.9116 -43.1686 77° East  Level Estimated
Sat 08:15:00 AM -22.9105 -43.1631 77° East  Level Estimated
Sat 08:16:00 AM -22.9105 -43.1631 250° West  Level Estimated
Sat 08:17:00 AM -22.9105 -43.1631 250° West  Level Estimated
Sat 08:18:00 AM -22.9105 -43.1631 250° West  Level Estimated
Sat 08:19:00 AM -22.9105 -43.1631 250° West  Level Estimated
Sat 08:20:00 AM -22.9105 -43.1631 250° West  Level Estimated
Sat 08:21:00 AM -22.9105 -43.1631 250° West  Level Estimated
Sat 08:22:00 AM -22.9105 -43.1631 250° West  Level Estimated
Sat 08:23:00 AM -22.9105 -43.1631 250° West  Level Estimated
Sat 08:24:00 AM -22.9105 -43.1631 250° West  Level Estimated
Sat 08:25:00 AM -22.9105 -43.1631 250° West  Level Estimated
Sat 08:26:00 AM -22.9105 -43.1631 250° West  Level Estimated
Sat 08:27:00 AM -22.9105 -43.1631 250° West  Level Estimated
Sat 08:28:00 AM -22.9105 -43.1631 250° West  Level Estimated
Sat 08:29:00 AM -22.9105 -43.1631 250° West  Level Estimated
Sat 08:30:00 AM -22.9105 -43.1631 250° West  Level Estimated

Login

Don't have an account? Register now (free) for customized features, flight alerts, and more!